Randle, Washington
Current Conditions -  °F | °C
As of 2:03 AM on Saturday 25 Oct 2014 (Local Time) from KGRF Reporting Station
Drizzle Drizzle  
Wind Chill: 50°   Ceiling: 600
Heat Index: 50°   Visibility: 10mi
Dew Point: 50°   Wind: 6mph
Humidity: 100%   Direction: 290°WNW
Pressure: 29.64"   Gusts: NA
Location:  46.53°N, 121.96°W
Report Text: KGRF 250903Z AUTO 29005KT 10SM DZ BKN006 BKN085 OVC200 10/10 A2964 RMK AO2 CIG 006V085 BKN006 V SCT
Loading
Personal Weather Stations






























Interactive Weather Map
Tropical Storm Tracking
New forecast layout! Learn more

10-Day Weather Forecast

Advertisements
Track Severe Weather on mobile